1992 A29192:HSK0292 (1991285S08064)


On this page: IBTrACS data - Map and Plots - Positions - Intensities - Original source data

Summary

Start Oct 11
End Oct 22
Basin SI
LMI 35 kt
Sources jtwc_sh
reunion
neumann
In WMO? Yes
Previous storm 1991 MISSING (NI)
Previous in basin 1992 HSK0192 (SI)
Concurrent storms 1991 KEVIN (EP)
1991 PAT (WP)
1991 ORCHID (WP)
1991 LINDA (EP)
1991 MARTY (EP)
1991 MISSING (NI)
1992 A29192 (SI)
1991 FABIAN (NA)
1991 RUTH (WP)
1992 A39192 (SI)
Next in basin 1992 A39192 (SI)
Next storm 1991 FABIAN (NA)

top of page IBTrACS Data: File Access

Image of storm

top of page Plots:

Map of storm track will not appear if FTP is down
Time series of cyclone Maximum Sustained Wind will not appear if FTP is down
Time series of cyclone Minimum Central Pressure will not appear if FTP is down

top of page Track Data:Position

jtwc_sh reunion neumann
Date Lat Lon Lat Lon Lat Lon
1991-10-11 12:00:00 -7.6 63.6 -7.6 63.6
1991-10-11 18:00:00 -7.6 63.4 -7.6 63.4
1991-10-12 00:00:00 -7.6 63.2 -7.6 63.2
1991-10-12 06:00:00 -7.7 63.0 -7.7 63.0
1991-10-12 12:00:00 -7.7 62.7 -7.7 62.7
1991-10-12 18:00:00 -7.8 62.5 -7.8 62.5
1991-10-13 00:00:00 -7.8 62.3 -7.8 62.3
1991-10-13 06:00:00 -7.9 62.0 -7.9 62.0
1991-10-13 12:00:00 -8.1 61.7 -8.1 61.7
1991-10-13 18:00:00 -8.3 61.4 -8.3 61.4
1991-10-14 00:00:00 -8.6 61.0 -8.6 61.0
1991-10-14 06:00:00 -8.8 60.5 -8.2 60.3 -8.8 60.5
1991-10-14 12:00:00 -9.1 60.0 -8.6 59.9 -9.1 60.0
1991-10-14 18:00:00 -9.3 59.4 -8.9 59.6 -9.3 59.4
1991-10-15 00:00:00 -9.5 58.9 -9.3 59.4 -9.5 58.9
1991-10-15 06:00:00 -9.6 58.3 -9.7 59.2 -9.6 58.3
1991-10-15 12:00:00 -9.9 57.8 -10.1 58.8 -9.9 57.8
1991-10-15 18:00:00 -10.2 57.3 -10.6 58.3 -10.2 57.3
1991-10-16 00:00:00 -10.5 56.9 -11.1 57.7 -10.5 56.9
1991-10-16 06:00:00 -10.9 56.4 -11.4 56.9 -10.9 56.4
1991-10-16 12:00:00 -11.2 55.8 -11.4 56.1 -11.2 55.8
1991-10-16 18:00:00 -11.3 55.2 -11.3 55.3 -11.3 55.2
1991-10-17 00:00:00 -11.4 54.5 -11.1 54.5 -11.4 54.5
1991-10-17 06:00:00 -11.4 53.9 -11.0 53.9 -11.4 53.9
1991-10-17 12:00:00 -11.4 53.4 -11.0 53.4 -11.4 53.4
jtwc_sh reunion neumann
1991-10-17 18:00:00 -11.3 52.9 -11.0 52.9 -11.3 52.9
1991-10-18 00:00:00 -11.1 52.4 -11.0 52.3 -11.1 52.4
1991-10-18 06:00:00 -11.0 51.9 -10.8 51.7 -11.0 51.9
1991-10-18 12:00:00 -10.9 51.5 -10.6 51.2 -10.9 51.5
1991-10-18 18:00:00 -10.9 51.1 -10.6 50.8 -10.9 51.1
1991-10-19 00:00:00 -10.9 50.7 -10.7 50.5 -10.9 50.7
1991-10-19 06:00:00 -10.8 50.3 -10.9 50.2 -10.8 50.3
1991-10-19 12:00:00 -10.7 49.9 -11.2 49.8 -10.7 49.9
1991-10-19 18:00:00 -10.5 49.7 -10.9 49.4 -10.5 49.7
1991-10-20 00:00:00 -10.3 49.5 -10.5 49.1 -10.3 49.5
1991-10-20 06:00:00 -10.0 49.4 -10.3 48.8 -10.0 49.4
1991-10-20 12:00:00 -9.7 49.3 -10.1 48.5 -9.7 49.3
1991-10-20 18:00:00 -9.5 49.2 -9.9 48.3 -9.5 49.2
1991-10-21 00:00:00 -9.3 49.1 -9.7 48.1 -9.3 49.1
1991-10-21 06:00:00 -9.2 48.8 -9.6 47.9 -9.2 48.8
1991-10-21 12:00:00 -9.4 47.7
1991-10-21 18:00:00 -9.1 47.3
1991-10-22 00:00:00 -8.7 46.8
1991-10-22 06:00:00 -8.3 46.1
1991-10-22 12:00:00 -8.0 45.3

top of pageTrack Data:Intensity

jtwc_sh reunion neumann
Date Wind Pres Wind Pres Wind Pres
1991-10-11 12:00:00 15. 15.
1991-10-11 18:00:00 15. 15.
1991-10-12 00:00:00 15. 15.
1991-10-12 06:00:00 20. 20.
1991-10-12 12:00:00 20. 20.
1991-10-12 18:00:00 20. 20.
1991-10-13 00:00:00 20. 20.
1991-10-13 06:00:00 20. 20.
1991-10-13 12:00:00 20. 20.
1991-10-13 18:00:00 20. 20.
1991-10-14 00:00:00 25. 25.
1991-10-14 06:00:00 25. 20. 1005. 25.
1991-10-14 12:00:00 25. 20. 1005. 25.
1991-10-14 18:00:00 25. 20. 1005. 25.
1991-10-15 00:00:00 25. 20. 1005. 25.
1991-10-15 06:00:00 25. 20. 1005. 25.
1991-10-15 12:00:00 25. 20. 1002. 25.
1991-10-15 18:00:00 25. 20. 1002. 25.
1991-10-16 00:00:00 25. 24. 1000. 25.
1991-10-16 06:00:00 25. 24. 1000. 25.
1991-10-16 12:00:00 30. 24. 1000. 30.
1991-10-16 18:00:00 30. 28. 997. 30.
1991-10-17 00:00:00 30. 28. 997. 30.
1991-10-17 06:00:00 30. 28. 997. 30.
1991-10-17 12:00:00 30. 28. 997. 30.
jtwc_sh reunion neumann
1991-10-17 18:00:00 30. 28. 997. 30.
1991-10-18 00:00:00 35. 28. 997. 35.
1991-10-18 06:00:00 35. 28. 997. 35.
1991-10-18 12:00:00 35. 28. 997. 35.
1991-10-18 18:00:00 35. 28. 997. 35.
1991-10-19 00:00:00 35. 28. 997. 35.
1991-10-19 06:00:00 35. 28. 997. 35.
1991-10-19 12:00:00 35. 24. 1000. 35.
1991-10-19 18:00:00 30. 24. 1000. 30.
1991-10-20 00:00:00 30. 24. 1000. 30.
1991-10-20 06:00:00 30. 24. 1000. 30.
1991-10-20 12:00:00 30. 24. 1000. 30.
1991-10-20 18:00:00 25. 20. 1003. 25.
1991-10-21 00:00:00 25. 20. 1005. 25.
1991-10-21 06:00:00 25. 20. 1005. 25.
1991-10-21 12:00:00 20. 1005.
1991-10-21 18:00:00
1991-10-22 00:00:00
1991-10-22 06:00:00
1991-10-22 12:00:00

top of page Links to source data

Source Source file Format
jtwc_sh bsh021992.txt ATCF
reunion WMO-Best-Tracks.txt:Line=15386:a29192 WMO (old format)
neumann tracks.sh:Storm=923:HSK0292:BSH021992:JTWC HURDAT